sensor_id;sensor_type;location;lat;lon;timestamp;temperature;humidity
15951;DHT22;8074;48.112;11.570;2022-07-23T00:01:45;23.90;99.90
15951;DHT22;8074;48.112;11.570;2022-07-23T00:04:13;23.80;99.90
15951;DHT22;8074;48.112;11.570;2022-07-23T00:06:40;23.70;99.90
15951;DHT22;8074;48.112;11.570;2022-07-23T00:09:08;23.70;99.90
15951;DHT22;8074;48.112;11.570;2022-07-23T00:11:35;23.60;99.90
15951;DHT22;8074;48.112;11.570;2022-07-23T00:14:03;23.60;99.90
15951;DHT22;8074;48.112;11.570;2022-07-23T00:16:30;23.50;99.90
15951;DHT22;8074;48.112;11.570;2022-07-23T00:19:00;23.30;99.90
15951;DHT22;8074;48.112;11.570;2022-07-23T00:21:28;23.40;99.90
15951;DHT22;8074;48.112;11.570;2022-07-23T00:23:55;23.30;99.90
15951;DHT22;8074;48.112;11.570;2022-07-23T00:26:23;23.40;99.90
15951;DHT22;8074;48.112;11.570;2022-07-23T00:28:50;23.50;99.90
15951;DHT22;8074;48.112;11.570;2022-07-23T00:31:38;23.60;99.90
15951;DHT22;8074;48.112;11.570;2022-07-23T00:34:25;23.50;99.90
15951;DHT22;8074;48.112;11.570;2022-07-23T00:37:12;23.40;99.90
15951;DHT22;8074;48.112;11.570;2022-07-23T00:39:39;23.10;99.90
15951;DHT22;8074;48.112;11.570;2022-07-23T00:42:08;23.00;99.90
15951;DHT22;8074;48.112;11.570;2022-07-23T00:44:35;23.10;99.90
15951;DHT22;8074;48.112;11.570;2022-07-23T00:47:02;23.10;99.90
15951;DHT22;8074;48.112;11.570;2022-07-23T00:49:31;23.00;99.90
15951;DHT22;8074;48.112;11.570;2022-07-23T00:52:01;23.10;99.90
15951;DHT22;8074;48.112;11.570;2022-07-23T00:54:29;23.10;99.90
15951;DHT22;8074;48.112;11.570;2022-07-23T00:56:56;23.10;99.90
15951;DHT22;8074;48.112;11.570;2022-07-23T00:59:24;23.10;99.90
15951;DHT22;8074;48.112;11.570;2022-07-23T01:01:51;23.20;99.90
15951;DHT22;8074;48.112;11.570;2022-07-23T01:04:18;23.10;99.90
15951;DHT22;8074;48.112;11.570;2022-07-23T01:06:45;23.20;99.90
15951;DHT22;8074;48.112;11.570;2022-07-23T01:09:12;23.20;99.90
15951;DHT22;8074;48.112;11.570;2022-07-23T01:11:41;23.30;99.90
15951;DHT22;8074;48.112;11.570;2022-07-23T01:14:12;23.30;99.90
15951;DHT22;8074;48.112;11.570;2022-07-23T01:16:41;23.20;99.90
15951;DHT22;8074;48.112;11.570;2022-07-23T01:19:09;23.30;99.90
15951;DHT22;8074;48.112;11.570;2022-07-23T01:21:37;23.40;99.90
15951;DHT22;8074;48.112;11.570;2022-07-23T01:24:06;23.40;99.90
15951;DHT22;8074;48.112;11.570;2022-07-23T01:26:34;23.50;99.90
15951;DHT22;8074;48.112;11.570;2022-07-23T01:29:02;23.40;99.90
15951;DHT22;8074;48.112;11.570;2022-07-23T01:31:29;23.30;99.90
15951;DHT22;8074;48.112;11.570;2022-07-23T01:33:56;22.90;99.90
15951;DHT22;8074;48.112;11.570;2022-07-23T01:36:23;22.30;99.90
15951;DHT22;8074;48.112;11.570;2022-07-23T01:38:51;21.80;99.90
15951;DHT22;8074;48.112;11.570;2022-07-23T01:41:19;21.50;99.90
15951;DHT22;8074;48.112;11.570;2022-07-23T01:43:46;21.50;99.90
15951;DHT22;8074;48.112;11.570;2022-07-23T01:46:14;21.30;99.90
15951;DHT22;8074;48.112;11.570;2022-07-23T01:48:41;21.10;99.90
15951;DHT22;8074;48.112;11.570;2022-07-23T01:51:08;21.00;99.90
15951;DHT22;8074;48.112;11.570;2022-07-23T01:53:35;20.90;99.90
15951;DHT22;8074;48.112;11.570;2022-07-23T01:56:02;20.70;99.90
15951;DHT22;8074;48.112;11.570;2022-07-23T01:58:31;20.60;99.90
15951;DHT22;8074;48.112;11.570;2022-07-23T02:00:58;20.50;99.90
15951;DHT22;8074;48.112;11.570;2022-07-23T02:03:25;20.50;99.90
15951;DHT22;8074;48.112;11.570;2022-07-23T02:05:52;20.60;99.90
15951;DHT22;8074;48.112;11.570;2022-07-23T02:08:19;20.60;99.90
15951;DHT22;8074;48.112;11.570;2022-07-23T02:10:46;20.60;99.90
15951;DHT22;8074;48.112;11.570;2022-07-23T02:13:14;20.50;99.90
15951;DHT22;8074;48.112;11.570;2022-07-23T02:15:42;20.20;99.90
15951;DHT22;8074;48.112;11.570;2022-07-23T02:18:09;20.00;99.90
15951;DHT22;8074;48.112;11.570;2022-07-23T02:20:36;19.90;99.90
15951;DHT22;8074;48.112;11.570;2022-07-23T02:23:05;19.80;99.90
15951;DHT22;8074;48.112;11.570;2022-07-23T02:25:32;19.90;99.90
15951;DHT22;8074;48.112;11.570;2022-07-23T02:27:59;20.00;99.90
15951;DHT22;8074;48.112;11.570;2022-07-23T02:30:26;20.10;99.90
15951;DHT22;8074;48.112;11.570;2022-07-23T02:32:55;20.10;99.90
15951;DHT22;8074;48.112;11.570;2022-07-23T02:35:22;20.10;99.90
15951;DHT22;8074;48.112;11.570;2022-07-23T02:37:49;20.10;99.90
15951;DHT22;8074;48.112;11.570;2022-07-23T02:40:17;20.10;99.90
15951;DHT22;8074;48.112;11.570;2022-07-23T02:42:44;20.20;99.90
15951;DHT22;8074;48.112;11.570;2022-07-23T02:45:11;20.30;99.90
15951;DHT22;8074;48.112;11.570;2022-07-23T02:47:38;20.40;99.90
15951;DHT22;8074;48.112;11.570;2022-07-23T02:50:08;20.30;99.90
15951;DHT22;8074;48.112;11.570;2022-07-23T02:52:35;20.30;99.90
15951;DHT22;8074;48.112;11.570;2022-07-23T02:55:02;20.30;99.90
15951;DHT22;8074;48.112;11.570;2022-07-23T02:57:30;20.10;99.90
15951;DHT22;8074;48.112;11.570;2022-07-23T02:59:57;19.80;99.90
15951;DHT22;8074;48.112;11.570;2022-07-23T03:02:24;18.70;99.90
15951;DHT22;8074;48.112;11.570;2022-07-23T03:04:51;18.40;99.90
15951;DHT22;8074;48.112;11.570;2022-07-23T03:07:19;18.30;99.90
15951;DHT22;8074;48.112;11.570;2022-07-23T03:09:46;18.20;99.90
15951;DHT22;8074;48.112;11.570;2022-07-23T03:12:13;18.10;99.90
15951;DHT22;8074;48.112;11.570;2022-07-23T03:14:41;18.00;99.90
15951;DHT22;8074;48.112;11.570;2022-07-23T03:17:08;18.00;99.90
15951;DHT22;8074;48.112;11.570;2022-07-23T03:19:35;18.00;99.90
15951;DHT22;8074;48.112;11.570;2022-07-23T03:22:04;18.00;99.90
15951;DHT22;8074;48.112;11.570;2022-07-23T03:24:32;18.00;99.90
15951;DHT22;8074;48.112;11.570;2022-07-23T03:27:13;18.00;99.90
15951;DHT22;8074;48.112;11.570;2022-07-23T03:29:40;17.90;99.90
15951;DHT22;8074;48.112;11.570;2022-07-23T03:32:07;17.80;99.90
15951;DHT22;8074;48.112;11.570;2022-07-23T03:34:34;17.80;99.90
15951;DHT22;8074;48.112;11.570;2022-07-23T03:37:01;17.80;99.90
15951;DHT22;8074;48.112;11.570;2022-07-23T03:39:28;17.80;99.90
15951;DHT22;8074;48.112;11.570;2022-07-23T03:41:57;17.80;99.90
15951;DHT22;8074;48.112;11.570;2022-07-23T03:44:23;17.90;99.90
15951;DHT22;8074;48.112;11.570;2022-07-23T03:46:50;18.00;99.90
15951;DHT22;8074;48.112;11.570;2022-07-23T03:49:17;18.10;99.90
15951;DHT22;8074;48.112;11.570;2022-07-23T03:51:45;18.10;99.90
15951;DHT22;8074;48.112;11.570;2022-07-23T03:54:12;18.10;99.90
15951;DHT22;8074;48.112;11.570;2022-07-23T03:56:39;18.10;99.90
15951;DHT22;8074;48.112;11.570;2022-07-23T03:59:07;18.20;99.90
15951;DHT22;8074;48.112;11.570;2022-07-23T04:01:34;18.30;99.90
15951;DHT22;8074;48.112;11.570;2022-07-23T04:04:02;18.40;99.90
15951;DHT22;8074;48.112;11.570;2022-07-23T04:06:29;18.60;99.90
15951;DHT22;8074;48.112;11.570;2022-07-23T04:08:56;18.50;99.90
15951;DHT22;8074;48.112;11.570;2022-07-23T04:11:23;18.40;99.90
15951;DHT22;8074;48.112;11.570;2022-07-23T04:13:50;18.30;99.90
15951;DHT22;8074;48.112;11.570;2022-07-23T04:16:18;18.30;99.90
15951;DHT22;8074;48.112;11.570;2022-07-23T04:18:45;18.20;99.90
15951;DHT22;8074;48.112;11.570;2022-07-23T04:21:12;18.30;99.90
15951;DHT22;8074;48.112;11.570;2022-07-23T04:23:39;18.40;99.90
15951;DHT22;8074;48.112;11.570;2022-07-23T04:26:06;18.60;99.90
15951;DHT22;8074;48.112;11.570;2022-07-23T04:28:33;18.90;99.90
15951;DHT22;8074;48.112;11.570;2022-07-23T04:31:00;19.20;99.90
15951;DHT22;8074;48.112;11.570;2022-07-23T04:33:28;19.20;99.90
15951;DHT22;8074;48.112;11.570;2022-07-23T04:35:55;19.20;99.90
15951;DHT22;8074;48.112;11.570;2022-07-23T04:38:22;19.10;99.90
15951;DHT22;8074;48.112;11.570;2022-07-23T04:40:49;18.90;99.90
15951;DHT22;8074;48.112;11.570;2022-07-23T04:43:16;18.60;99.90
15951;DHT22;8074;48.112;11.570;2022-07-23T04:45:43;18.50;99.90
15951;DHT22;8074;48.112;11.570;2022-07-23T04:48:10;18.50;99.90
15951;DHT22;8074;48.112;11.570;2022-07-23T04:50:38;18.50;99.90
15951;DHT22;8074;48.112;11.570;2022-07-23T04:53:05;18.60;99.90
15951;DHT22;8074;48.112;11.570;2022-07-23T04:55:32;18.70;99.90
15951;DHT22;8074;48.112;11.570;2022-07-23T04:57:59;18.80;99.90
15951;DHT22;8074;48.112;11.570;2022-07-23T05:00:26;18.80;99.90
15951;DHT22;8074;48.112;11.570;2022-07-23T05:02:53;18.80;99.90
15951;DHT22;8074;48.112;11.570;2022-07-23T05:05:21;18.90;99.90
15951;DHT22;8074;48.112;11.570;2022-07-23T05:07:49;18.90;99.90
15951;DHT22;8074;48.112;11.570;2022-07-23T05:10:16;19.00;99.90
15951;DHT22;8074;48.112;11.570;2022-07-23T05:12:43;19.00;99.90
15951;DHT22;8074;48.112;11.570;2022-07-23T05:15:10;19.20;99.90
15951;DHT22;8074;48.112;11.570;2022-07-23T05:17:37;19.30;99.90
15951;DHT22;8074;48.112;11.570;2022-07-23T05:20:05;19.40;99.90
15951;DHT22;8074;48.112;11.570;2022-07-23T05:22:32;19.40;99.90
15951;DHT22;8074;48.112;11.570;2022-07-23T05:25:01;19.40;99.90
15951;DHT22;8074;48.112;11.570;2022-07-23T05:27:28;19.50;99.90
15951;DHT22;8074;48.112;11.570;2022-07-23T05:30:10;19.50;99.90
15951;DHT22;8074;48.112;11.570;2022-07-23T05:32:37;19.60;99.90
15951;DHT22;8074;48.112;11.570;2022-07-23T05:35:06;19.50;99.90
15951;DHT22;8074;48.112;11.570;2022-07-23T05:37:33;19.70;99.90
15951;DHT22;8074;48.112;11.570;2022-07-23T05:40:02;19.80;99.90
15951;DHT22;8074;48.112;11.570;2022-07-23T05:42:31;20.00;99.90
15951;DHT22;8074;48.112;11.570;2022-07-23T05:44:58;20.30;99.90
15951;DHT22;8074;48.112;11.570;2022-07-23T05:47:25;20.20;99.90
15951;DHT22;8074;48.112;11.570;2022-07-23T05:49:52;20.30;99.90
15951;DHT22;8074;48.112;11.570;2022-07-23T05:52:19;20.40;99.90
15951;DHT22;8074;48.112;11.570;2022-07-23T05:54:46;20.40;99.90
15951;DHT22;8074;48.112;11.570;2022-07-23T05:57:15;20.40;99.90
15951;DHT22;8074;48.112;11.570;2022-07-23T05:59:42;20.20;99.90
15951;DHT22;8074;48.112;11.570;2022-07-23T06:02:09;20.20;99.90
15951;DHT22;8074;48.112;11.570;2022-07-23T06:04:36;20.30;99.90
15951;DHT22;8074;48.112;11.570;2022-07-23T06:07:04;20.50;99.90
15951;DHT22;8074;48.112;11.570;2022-07-23T06:09:31;20.50;99.90
15951;DHT22;8074;48.112;11.570;2022-07-23T06:11:58;20.10;99.90
15951;DHT22;8074;48.112;11.570;2022-07-23T06:14:26;19.70;99.90
15951;DHT22;8074;48.112;11.570;2022-07-23T06:16:53;19.50;99.90
15951;DHT22;8074;48.112;11.570;2022-07-23T06:19:20;19.40;99.90
15951;DHT22;8074;48.112;11.570;2022-07-23T06:21:47;19.40;99.90
15951;DHT22;8074;48.112;11.570;2022-07-23T06:24:14;19.30;99.90
15951;DHT22;8074;48.112;11.570;2022-07-23T06:26:41;19.20;99.90
15951;DHT22;8074;48.112;11.570;2022-07-23T06:29:08;19.20;99.90
15951;DHT22;8074;48.112;11.570;2022-07-23T06:31:36;19.20;99.90
15951;DHT22;8074;48.112;11.570;2022-07-23T06:34:04;19.30;99.90
15951;DHT22;8074;48.112;11.570;2022-07-23T06:36:37;19.30;99.90
15951;DHT22;8074;48.112;11.570;2022-07-23T06:39:05;19.20;99.90
15951;DHT22;8074;48.112;11.570;2022-07-23T06:41:33;19.20;99.90
15951;DHT22;8074;48.112;11.570;2022-07-23T06:44:18;19.30;99.90
15951;DHT22;8074;48.112;11.570;2022-07-23T06:47:07;19.40;99.90
15951;DHT22;8074;48.112;11.570;2022-07-23T06:49:55;19.50;99.90
15951;DHT22;8074;48.112;11.570;2022-07-23T06:52:42;19.80;99.90
15951;DHT22;8074;48.112;11.570;2022-07-23T06:55:30;20.10;99.90
15951;DHT22;8074;48.112;11.570;2022-07-23T06:58:18;20.30;99.90
15951;DHT22;8074;48.112;11.570;2022-07-23T07:01:06;20.50;99.90
15951;DHT22;8074;48.112;11.570;2022-07-23T07:03:55;20.60;99.90
15951;DHT22;8074;48.112;11.570;2022-07-23T07:06:42;20.70;99.90
15951;DHT22;8074;48.112;11.570;2022-07-23T07:09:29;20.50;99.90
15951;DHT22;8074;48.112;11.570;2022-07-23T07:12:16;20.60;99.90
15951;DHT22;8074;48.112;11.570;2022-07-23T07:14:43;20.60;99.90
15951;DHT22;8074;48.112;11.570;2022-07-23T07:17:10;20.50;99.90
15951;DHT22;8074;48.112;11.570;2022-07-23T07:19:39;20.70;99.90
15951;DHT22;8074;48.112;11.570;2022-07-23T07:22:06;20.90;99.90
15951;DHT22;8074;48.112;11.570;2022-07-23T07:24:33;21.10;99.90
15951;DHT22;8074;48.112;11.570;2022-07-23T07:27:00;21.40;99.90
15951;DHT22;8074;48.112;11.570;2022-07-23T07:29:27;21.80;99.90
15951;DHT22;8074;48.112;11.570;2022-07-23T07:31:54;22.10;99.90
15951;DHT22;8074;48.112;11.570;2022-07-23T07:34:21;22.00;99.90
15951;DHT22;8074;48.112;11.570;2022-07-23T07:36:50;22.20;99.90
15951;DHT22;8074;48.112;11.570;2022-07-23T07:39:16;22.00;99.90
15951;DHT22;8074;48.112;11.570;2022-07-23T07:41:44;21.90;99.90
15951;DHT22;8074;48.112;11.570;2022-07-23T07:44:12;21.80;99.90
15951;DHT22;8074;48.112;11.570;2022-07-23T07:46:39;21.70;99.90
15951;DHT22;8074;48.112;11.570;2022-07-23T07:49:06;21.60;99.90
15951;DHT22;8074;48.112;11.570;2022-07-23T07:51:33;21.40;99.90
15951;DHT22;8074;48.112;11.570;2022-07-23T07:57:20;21.40;99.90
15951;DHT22;8074;48.112;11.570;2022-07-23T07:59:47;21.50;99.90
15951;DHT22;8074;48.112;11.570;2022-07-23T08:02:14;21.50;99.90
15951;DHT22;8074;48.112;11.570;2022-07-23T08:04:49;21.60;99.90
15951;DHT22;8074;48.112;11.570;2022-07-23T08:07:16;21.70;99.90
15951;DHT22;8074;48.112;11.570;2022-07-23T08:09:44;21.80;99.90
15951;DHT22;8074;48.112;11.570;2022-07-23T08:12:13;21.90;99.90
15951;DHT22;8074;48.112;11.570;2022-07-23T08:14:41;21.90;99.90
15951;DHT22;8074;48.112;11.570;2022-07-23T08:17:08;21.80;99.90
15951;DHT22;8074;48.112;11.570;2022-07-23T08:19:35;21.90;99.90
15951;DHT22;8074;48.112;11.570;2022-07-23T08:22:02;22.10;99.90
15951;DHT22;8074;48.112;11.570;2022-07-23T08:24:29;22.30;99.90
15951;DHT22;8074;48.112;11.570;2022-07-23T08:26:56;22.30;99.90
15951;DHT22;8074;48.112;11.570;2022-07-23T08:29:28;22.40;99.90
15951;DHT22;8074;48.112;11.570;2022-07-23T08:31:57;22.50;99.90
15951;DHT22;8074;48.112;11.570;2022-07-23T08:34:34;22.40;99.90
15951;DHT22;8074;48.112;11.570;2022-07-23T08:37:03;22.40;99.90
15951;DHT22;8074;48.112;11.570;2022-07-23T08:39:30;22.60;99.90
15951;DHT22;8074;48.112;11.570;2022-07-23T08:41:57;22.30;99.90
15951;DHT22;8074;48.112;11.570;2022-07-23T08:44:24;22.50;99.90
15951;DHT22;8074;48.112;11.570;2022-07-23T08:46:51;22.40;99.90
15951;DHT22;8074;48.112;11.570;2022-07-23T08:49:20;22.40;99.90
15951;DHT22;8074;48.112;11.570;2022-07-23T08:51:48;22.40;99.90
15951;DHT22;8074;48.112;11.570;2022-07-23T08:54:15;22.30;99.90
15951;DHT22;8074;48.112;11.570;2022-07-23T08:56:43;22.20;99.90
15951;DHT22;8074;48.112;11.570;2022-07-23T08:59:10;22.40;99.90
15951;DHT22;8074;48.112;11.570;2022-07-23T09:01:39;22.40;99.90
15951;DHT22;8074;48.112;11.570;2022-07-23T09:04:09;22.40;99.90
15951;DHT22;8074;48.112;11.570;2022-07-23T09:07:05;22.40;99.90
15951;DHT22;8074;48.112;11.570;2022-07-23T09:09:41;22.40;99.90
15951;DHT22;8074;48.112;11.570;2022-07-23T09:12:09;22.60;99.90
15951;DHT22;8074;48.112;11.570;2022-07-23T09:14:39;22.60;99.90
15951;DHT22;8074;48.112;11.570;2022-07-23T09:17:10;22.80;99.90
15951;DHT22;8074;48.112;11.570;2022-07-23T09:19:39;23.00;99.90
15951;DHT22;8074;48.112;11.570;2022-07-23T09:22:24;23.30;99.90
15951;DHT22;8074;48.112;11.570;2022-07-23T09:25:09;23.40;99.90
15951;DHT22;8074;48.112;11.570;2022-07-23T09:27:49;23.80;99.90
15951;DHT22;8074;48.112;11.570;2022-07-23T09:30:18;24.00;99.90
15951;DHT22;8074;48.112;11.570;2022-07-23T09:33:04;24.10;99.90
15951;DHT22;8074;48.112;11.570;2022-07-23T09:35:56;24.50;99.90
15951;DHT22;8074;48.112;11.570;2022-07-23T09:38:48;25.20;99.90
15951;DHT22;8074;48.112;11.570;2022-07-23T09:41:16;25.60;99.90
15951;DHT22;8074;48.112;11.570;2022-07-23T09:43:44;26.20;99.90
15951;DHT22;8074;48.112;11.570;2022-07-23T09:46:19;26.40;99.90
15951;DHT22;8074;48.112;11.570;2022-07-23T09:59:07;28.20;99.90
15951;DHT22;8074;48.112;11.570;2022-07-23T10:01:55;29.50;99.90
15951;DHT22;8074;48.112;11.570;2022-07-23T10:04:40;30.50;99.90
15951;DHT22;8074;48.112;11.570;2022-07-23T10:07:17;30.50;99.90
15951;DHT22;8074;48.112;11.570;2022-07-23T10:09:50;30.50;99.90
15951;DHT22;8074;48.112;11.570;2022-07-23T10:27:46;29.30;99.90
15951;DHT22;8074;48.112;11.570;2022-07-23T10:30:24;30.20;99.90
15951;DHT22;8074;48.112;11.570;2022-07-23T10:36:06;31.30;99.90
15951;DHT22;8074;48.112;11.570;2022-07-23T10:38:40;30.70;99.90
15951;DHT22;8074;48.112;11.570;2022-07-23T10:41:11;29.50;99.90
15951;DHT22;8074;48.112;11.570;2022-07-23T10:44:10;28.80;99.90
15951;DHT22;8074;48.112;11.570;2022-07-23T10:46:59;28.70;99.90
15951;DHT22;8074;48.112;11.570;2022-07-23T10:49:43;28.30;99.90
15951;DHT22;8074;48.112;11.570;2022-07-23T10:52:21;27.80;99.90
15951;DHT22;8074;48.112;11.570;2022-07-23T10:54:50;27.70;99.90
15951;DHT22;8074;48.112;11.570;2022-07-23T10:57:18;27.50;99.90
15951;DHT22;8074;48.112;11.570;2022-07-23T11:00:18;27.80;99.90
15951;DHT22;8074;48.112;11.570;2022-07-23T11:02:50;28.10;99.90
15951;DHT22;8074;48.112;11.570;2022-07-23T11:05:27;28.20;99.90
15951;DHT22;8074;48.112;11.570;2022-07-23T11:08:18;27.80;99.90
15951;DHT22;8074;48.112;11.570;2022-07-23T11:10:48;27.60;99.90
15951;DHT22;8074;48.112;11.570;2022-07-23T11:13:26;27.40;99.90
15951;DHT22;8074;48.112;11.570;2022-07-23T11:16:19;27.40;99.90
15951;DHT22;8074;48.112;11.570;2022-07-23T11:19:07;27.00;99.90
15951;DHT22;8074;48.112;11.570;2022-07-23T11:21:48;26.90;99.90
15951;DHT22;8074;48.112;11.570;2022-07-23T11:24:22;26.80;99.90
15951;DHT22;8074;48.112;11.570;2022-07-23T11:26:56;26.80;99.90
15951;DHT22;8074;48.112;11.570;2022-07-23T11:29:44;26.70;99.90
15951;DHT22;8074;48.112;11.570;2022-07-23T11:35:25;26.40;99.90
15951;DHT22;8074;48.112;11.570;2022-07-23T11:38:04;26.10;99.90
15951;DHT22;8074;48.112;11.570;2022-07-23T11:40:31;26.00;99.90
15951;DHT22;8074;48.112;11.570;2022-07-23T11:43:00;25.90;99.90
15951;DHT22;8074;48.112;11.570;2022-07-23T11:45:32;25.80;99.90
15951;DHT22;8074;48.112;11.570;2022-07-23T11:48:00;25.60;99.90
15951;DHT22;8074;48.112;11.570;2022-07-23T11:50:30;25.70;99.90
15951;DHT22;8074;48.112;11.570;2022-07-23T11:52:58;25.60;99.90
15951;DHT22;8074;48.112;11.570;2022-07-23T11:55:25;25.60;99.90
15951;DHT22;8074;48.112;11.570;2022-07-23T11:57:54;25.60;99.90
15951;DHT22;8074;48.112;11.570;2022-07-23T12:00:24;25.60;99.90
15951;DHT22;8074;48.112;11.570;2022-07-23T12:02:55;25.60;99.90
15951;DHT22;8074;48.112;11.570;2022-07-23T12:05:25;25.60;99.90
15951;DHT22;8074;48.112;11.570;2022-07-23T12:07:56;25.70;99.90
15951;DHT22;8074;48.112;11.570;2022-07-23T12:10:25;25.80;99.90
15951;DHT22;8074;48.112;11.570;2022-07-23T12:12:54;25.70;99.90
15951;DHT22;8074;48.112;11.570;2022-07-23T12:15:24;25.60;99.90
15951;DHT22;8074;48.112;11.570;2022-07-23T12:17:53;25.50;99.90
15951;DHT22;8074;48.112;11.570;2022-07-23T12:20:22;25.40;99.90
15951;DHT22;8074;48.112;11.570;2022-07-23T12:22:52;25.20;99.90
15951;DHT22;8074;48.112;11.570;2022-07-23T12:25:23;25.20;99.90
15951;DHT22;8074;48.112;11.570;2022-07-23T12:27:59;25.40;99.90
15951;DHT22;8074;48.112;11.570;2022-07-23T12:30:31;25.60;99.90
15951;DHT22;8074;48.112;11.570;2022-07-23T12:33:00;25.40;99.90
15951;DHT22;8074;48.112;11.570;2022-07-23T12:35:34;25.30;99.90
15951;DHT22;8074;48.112;11.570;2022-07-23T12:38:04;25.10;99.90
15951;DHT22;8074;48.112;11.570;2022-07-23T12:40:34;25.30;99.90
15951;DHT22;8074;48.112;11.570;2022-07-23T12:43:04;25.60;99.90
15951;DHT22;8074;48.112;11.570;2022-07-23T12:45:48;25.70;99.90
15951;DHT22;8074;48.112;11.570;2022-07-23T12:48:19;25.40;99.90
15951;DHT22;8074;48.112;11.570;2022-07-23T12:50:53;25.20;99.90
15951;DHT22;8074;48.112;11.570;2022-07-23T12:53:22;25.40;99.90
15951;DHT22;8074;48.112;11.570;2022-07-23T12:55:58;25.30;99.90
15951;DHT22;8074;48.112;11.570;2022-07-23T12:58:39;25.00;99.90
15951;DHT22;8074;48.112;11.570;2022-07-23T13:01:07;25.00;99.90
15951;DHT22;8074;48.112;11.570;2022-07-23T13:03:37;25.00;99.90
15951;DHT22;8074;48.112;11.570;2022-07-23T13:06:07;25.00;99.90
15951;DHT22;8074;48.112;11.570;2022-07-23T13:08:36;25.10;99.90
15951;DHT22;8074;48.112;11.570;2022-07-23T13:11:06;25.20;99.90
15951;DHT22;8074;48.112;11.570;2022-07-23T13:13:35;25.30;99.90
15951;DHT22;8074;48.112;11.570;2022-07-23T13:16:03;25.50;99.90
15951;DHT22;8074;48.112;11.570;2022-07-23T13:18:49;25.40;99.90
15951;DHT22;8074;48.112;11.570;2022-07-23T13:21:36;25.20;99.90
15951;DHT22;8074;48.112;11.570;2022-07-23T13:24:25;25.20;99.90
15951;DHT22;8074;48.112;11.570;2022-07-23T13:27:14;25.20;99.90
15951;DHT22;8074;48.112;11.570;2022-07-23T13:29:42;25.10;99.90
15951;DHT22;8074;48.112;11.570;2022-07-23T13:32:09;25.10;99.90
15951;DHT22;8074;48.112;11.570;2022-07-23T13:34:38;25.20;99.90
15951;DHT22;8074;48.112;11.570;2022-07-23T13:37:06;25.20;99.90
15951;DHT22;8074;48.112;11.570;2022-07-23T13:39:33;25.30;99.90
15951;DHT22;8074;48.112;11.570;2022-07-23T13:42:00;25.40;99.90
15951;DHT22;8074;48.112;11.570;2022-07-23T13:44:29;25.60;99.90
15951;DHT22;8074;48.112;11.570;2022-07-23T13:47:07;25.80;99.90
15951;DHT22;8074;48.112;11.570;2022-07-23T13:49:34;26.40;99.90
15951;DHT22;8074;48.112;11.570;2022-07-23T13:52:02;26.30;99.90
15951;DHT22;8074;48.112;11.570;2022-07-23T13:54:29;26.20;99.90
15951;DHT22;8074;48.112;11.570;2022-07-23T13:56:56;25.80;99.90
15951;DHT22;8074;48.112;11.570;2022-07-23T13:59:23;25.60;99.90
15951;DHT22;8074;48.112;11.570;2022-07-23T14:01:52;25.50;99.90
15951;DHT22;8074;48.112;11.570;2022-07-23T14:04:19;25.30;99.90
15951;DHT22;8074;48.112;11.570;2022-07-23T14:06:46;25.20;99.90
15951;DHT22;8074;48.112;11.570;2022-07-23T14:09:12;25.00;99.90
15951;DHT22;8074;48.112;11.570;2022-07-23T14:11:39;25.10;99.90
15951;DHT22;8074;48.112;11.570;2022-07-23T14:14:06;24.90;99.90
15951;DHT22;8074;48.112;11.570;2022-07-23T14:16:33;24.70;99.90
15951;DHT22;8074;48.112;11.570;2022-07-23T14:19:02;24.20;99.90
15951;DHT22;8074;48.112;11.570;2022-07-23T14:21:29;24.00;99.90
15951;DHT22;8074;48.112;11.570;2022-07-23T14:23:56;24.00;99.90
15951;DHT22;8074;48.112;11.570;2022-07-23T14:26:23;24.10;99.90
15951;DHT22;8074;48.112;11.570;2022-07-23T14:28:50;24.40;99.90
15951;DHT22;8074;48.112;11.570;2022-07-23T14:31:17;24.60;99.90
15951;DHT22;8074;48.112;11.570;2022-07-23T14:33:45;24.70;99.90
15951;DHT22;8074;48.112;11.570;2022-07-23T14:36:28;24.80;99.90
15951;DHT22;8074;48.112;11.570;2022-07-23T14:38:56;24.70;99.90
15951;DHT22;8074;48.112;11.570;2022-07-23T14:41:23;24.90;99.90
15951;DHT22;8074;48.112;11.570;2022-07-23T14:43:50;25.20;99.90
15951;DHT22;8074;48.112;11.570;2022-07-23T14:46:17;25.20;99.90
15951;DHT22;8074;48.112;11.570;2022-07-23T14:48:44;25.10;99.90
15951;DHT22;8074;48.112;11.570;2022-07-23T14:51:11;25.10;99.90
15951;DHT22;8074;48.112;11.570;2022-07-23T14:53:39;25.10;99.90
15951;DHT22;8074;48.112;11.570;2022-07-23T14:56:06;26.20;99.90
15951;DHT22;8074;48.112;11.570;2022-07-23T14:58:33;26.70;99.90
15951;DHT22;8074;48.112;11.570;2022-07-23T15:01:00;26.90;99.90
15951;DHT22;8074;48.112;11.570;2022-07-23T15:03:37;27.20;99.90
15951;DHT22;8074;48.112;11.570;2022-07-23T15:06:04;26.80;99.90
15951;DHT22;8074;48.112;11.570;2022-07-23T15:08:32;26.50;99.90
15951;DHT22;8074;48.112;11.570;2022-07-23T15:11:01;26.30;99.90
15951;DHT22;8074;48.112;11.570;2022-07-23T15:13:28;26.00;99.90
15951;DHT22;8074;48.112;11.570;2022-07-23T15:15:55;26.20;99.90
15951;DHT22;8074;48.112;11.570;2022-07-23T15:18:23;26.50;99.90
15951;DHT22;8074;48.112;11.570;2022-07-23T15:20:50;26.90;99.90
15951;DHT22;8074;48.112;11.570;2022-07-23T15:23:17;27.00;99.90
15951;DHT22;8074;48.112;11.570;2022-07-23T15:25:44;26.90;99.90
15951;DHT22;8074;48.112;11.570;2022-07-23T15:28:13;27.60;99.90
15951;DHT22;8074;48.112;11.570;2022-07-23T15:30:40;28.70;99.90
15951;DHT22;8074;48.112;11.570;2022-07-23T15:33:07;29.30;99.90
15951;DHT22;8074;48.112;11.570;2022-07-23T15:35:34;29.30;99.90
15951;DHT22;8074;48.112;11.570;2022-07-23T15:38:01;29.40;99.90
15951;DHT22;8074;48.112;11.570;2022-07-23T15:40:28;29.80;99.90
15951;DHT22;8074;48.112;11.570;2022-07-23T15:43:13;30.00;99.90
15951;DHT22;8074;48.112;11.570;2022-07-23T15:45:41;30.00;99.90
15951;DHT22;8074;48.112;11.570;2022-07-23T15:48:08;31.60;99.90
15951;DHT22;8074;48.112;11.570;2022-07-23T15:50:36;33.30;99.90
15951;DHT22;8074;48.112;11.570;2022-07-23T15:53:03;32.70;99.90
15951;DHT22;8074;48.112;11.570;2022-07-23T15:55:30;33.30;99.90
15951;DHT22;8074;48.112;11.570;2022-07-23T15:57:57;34.10;99.90
15951;DHT22;8074;48.112;11.570;2022-07-23T16:00:26;33.80;99.90
15951;DHT22;8074;48.112;11.570;2022-07-23T16:02:53;33.10;99.90
15951;DHT22;8074;48.112;11.570;2022-07-23T16:05:20;33.50;99.90
15951;DHT22;8074;48.112;11.570;2022-07-23T16:07:47;33.50;99.90
15951;DHT22;8074;48.112;11.570;2022-07-23T16:10:14;33.40;99.90
15951;DHT22;8074;48.112;11.570;2022-07-23T16:12:41;33.60;99.90
15951;DHT22;8074;48.112;11.570;2022-07-23T16:15:08;34.00;99.90
15951;DHT22;8074;48.112;11.570;2022-07-23T16:17:37;34.20;99.90
15951;DHT22;8074;48.112;11.570;2022-07-23T16:20:05;35.00;99.90
15951;DHT22;8074;48.112;11.570;2022-07-23T16:22:34;34.60;99.90
15951;DHT22;8074;48.112;11.570;2022-07-23T16:25:01;33.90;99.90